Time;durP1;ratioP1;P1;durP2;ratioP2;P2;SDS_P1;SDS_P2;PMS_P1;PMS_P2;Temp;Humidity;BMP_temperature;BMP_pressure;BME280_temperature;BME280_humidity;BME280_pressure;Samples;Min_cycle;Max_cycle;Signal;HPM_P1;HPM_P2
2022/02/02 00:04:50;;;;;;;4.33;3.13;;;7.80;97.20;;;;;;5117790;28;20840;-47
2022/02/02 00:07:46;;;;;;;4.27;2.97;;;7.70;97.50;;;;;;5118400;28;20210;-46
2022/02/02 00:10:36;;;;;;;3.20;2.50;;;7.60;97.80;;;;;;5117279;28;20422;-47
2022/02/02 00:13:12;;;;;;;4.57;2.20;;;7.50;98.10;;;;;;5118519;28;20418;-47
2022/02/02 00:20:52;;;;;;;2.47;1.10;;;7.40;98.40;;;;;;5116690;28;20846;-46
2022/02/02 00:23:22;;;;;;;1.97;1.30;;;7.30;98.40;;;;;;5118179;28;20421;-47
2022/02/02 00:25:57;;;;;;;4.47;1.60;;;7.30;98.60;;;;;;5116942;28;20448;-47
2022/02/02 00:28:27;;;;;;;2.23;2.03;;;7.20;98.60;;;;;;5118334;28;20541;-47
2022/02/02 00:30:54;;;;;;;2.60;1.47;;;7.20;98.80;;;;;;5117184;28;20430;-47
2022/02/02 00:33:24;;;;;;;3.30;1.60;;;7.10;98.80;;;;;;5100469;28;20738;-46
2022/02/02 00:36:26;;;;;;;1.90;1.50;;;7.10;98.80;;;;;;5098689;28;20440;-46
2022/02/02 00:38:41;;;;;;;2.43;1.83;;;7.00;98.80;;;;;;5113803;28;20434;-46
2022/02/02 00:41:08;;;;;;;1.93;1.40;;;7.00;98.80;;;;;;5117075;28;20812;-47
2022/02/02 00:43:33;;;;;;;3.00;1.90;;;7.00;98.90;;;;;;5115580;28;20572;-47
2022/02/02 00:45:59;;;;;;;2.13;1.60;;;7.20;99.90;;;;;;5116988;28;20517;-47
2022/02/02 00:48:27;;;;;;;2.00;1.33;;;7.80;99.90;;;;;;5118799;28;20271;-47
2022/02/02 00:50:53;;;;;;;2.10;1.30;;;8.00;99.90;;;;;;5121434;28;20184;-47
2022/02/02 00:53:20;;;;;;;2.33;1.30;;;8.00;99.90;;;;;;5120798;28;20825;-47
2022/02/02 00:55:45;;;;;;;2.80;1.60;;;7.90;99.90;;;;;;5121974;28;20826;-47
2022/02/02 00:58:12;;;;;;;2.70;1.60;;;7.80;99.30;;;;;;5118499;28;20555;-47
2022/02/02 01:00:37;;;;;;;3.00;1.87;;;7.70;98.80;;;;;;5112149;28;20203;-47
2022/02/02 01:03:04;;;;;;;3.20;1.77;;;7.60;98.60;;;;;;5111422;28;20437;-47
2022/02/02 01:05:30;;;;;;;2.50;1.80;;;7.50;98.60;;;;;;5122384;28;20190;-47
2022/02/02 01:08:32;;;;;;;4.00;2.73;;;7.40;98.60;;;;;;5120041;28;20738;-46
2022/02/02 01:21:56;;;;;;;3.50;1.60;;;7.10;98.20;;;;;;5121888;28;20405;-46
2022/02/02 01:29:47;;;;;;;3.57;1.30;;;7.00;98.00;;;;;;5099449;28;20531;-47
2022/02/02 01:32:19;;;;;;;2.13;1.10;;;7.00;98.00;;;;;;5116317;28;20863;-47
2022/02/02 01:34:45;;;;;;;3.23;1.30;;;7.00;98.00;;;;;;5120363;28;20453;-47
2022/02/02 01:37:11;;;;;;;3.33;1.57;;;7.00;98.00;;;;;;5121823;28;20421;-46
2022/02/02 01:39:37;;;;;;;3.13;1.60;;;7.00;98.10;;;;;;5100013;28;20604;-47
2022/02/02 01:42:07;;;;;;;2.30;1.10;;;7.00;98.10;;;;;;5100977;28;20406;-47
2022/02/02 01:44:47;;;;;;;1.60;1.20;;;7.00;98.20;;;;;;5099644;28;20423;-47
2022/02/02 01:47:13;;;;;;;2.00;1.20;;;7.00;98.20;;;;;;5100659;28;20465;-47
2022/02/02 01:55:02;;;;;;;2.47;1.27;;;7.00;98.40;;;;;;5099087;28;20446;-47
2022/02/02 02:00:12;;;;;;;4.53;1.33;;;7.00;98.60;;;;;;5098716;28;20854;-46
2022/02/02 02:02:38;;;;;;;1.57;1.07;;;7.00;98.60;;;;;;5100579;28;20520;-47
2022/02/02 02:05:05;;;;;;;3.13;1.60;;;7.00;98.60;;;;;;5099029;28;20542;-47
2022/02/02 02:07:31;;;;;;;5.37;1.60;;;7.00;98.70;;;;;;5100668;28;20307;-47
2022/02/02 02:09:59;;;;;;;4.13;2.20;;;7.00;98.70;;;;;;5099060;28;20699;-47
2022/02/02 02:12:36;;;;;;;5.07;2.30;;;7.00;98.70;;;;;;5100730;28;20678;-47
2022/02/02 02:15:06;;;;;;;5.70;2.40;;;7.00;98.70;;;;;;5081281;28;20450;-47
2022/02/02 02:17:31;;;;;;;5.23;2.90;;;7.00;98.60;;;;;;5099968;28;20831;-47
2022/02/02 02:19:57;;;;;;;4.93;3.40;;;7.00;98.60;;;;;;5098023;28;20441;-47
2022/02/02 02:22:31;;;;;;;6.03;2.90;;;7.00;98.60;;;;;;5099873;28;20651;-47
2022/02/02 02:24:57;;;;;;;8.97;3.37;;;7.00;98.60;;;;;;5098373;28;20191;-47
2022/02/02 02:27:24;;;;;;;9.33;3.67;;;7.00;98.60;;;;;;5099965;28;20535;-47
2022/02/02 02:38:28;;;;;;;7.60;4.60;;;7.00;98.60;;;;;;5091945;28;20441;-47
2022/02/02 02:57:05;;;;;;;7.63;4.33;;;7.10;98.40;;;;;;5097744;28;20475;-47
2022/02/02 03:00:16;;;;;;;6.20;3.30;;;7.10;98.20;;;;;;5099832;28;20475;-47
2022/02/02 03:29:54;;;;;;;7.53;3.07;;;7.00;97.90;;;;;;5098625;28;20750;-46
2022/02/02 03:59:08;;;;;;;11.40;3.77;;;7.00;97.30;;;;;;5098488;28;20738;-47
2022/02/02 04:02:07;;;;;;;11.97;4.00;;;7.00;97.30;;;;;;5096341;28;20187;-47
2022/02/02 04:07:18;;;;;;;8.17;3.30;;;7.00;97.10;;;;;;5116832;28;20476;-47
2022/02/02 04:09:45;;;;;;;10.10;3.47;;;7.00;97.00;;;;;;5118749;28;20733;-47
2022/02/02 04:39:15;;;;;;;7.13;2.83;;;7.00;97.20;;;;;;5115810;28;20790;-47
2022/02/02 04:55:35;;;;;;;11.87;3.67;;;6.90;97.30;;;;;;5105903;28;20445;-47
2022/02/02 05:08:32;;;;;;;8.13;3.27;;;6.80;96.90;;;;;;5115749;28;20360;-47
2022/02/02 05:50:32;;;;;;;13.30;3.77;;;6.70;96.50;;;;;;5119654;28;20431;-41
2022/02/02 05:52:58;;;;;;;11.30;3.83;;;6.70;96.50;;;;;;5118118;28;20533;-41
2022/02/02 05:55:23;;;;;;;10.80;2.93;;;6.70;96.40;;;;;;5100589;28;20429;-40
2022/02/02 05:57:49;;;;;;;11.37;3.80;;;6.60;96.30;;;;;;5080177;28;20882;-42
2022/02/02 06:00:16;;;;;;;9.70;4.03;;;6.70;96.40;;;;;;5104265;28;20189;-41
2022/02/02 06:02:46;;;;;;;11.40;5.20;;;6.70;96.30;;;;;;5096586;28;20422;-41
2022/02/02 06:05:11;;;;;;;14.77;6.10;;;6.70;96.30;;;;;;5102309;28;20469;-42
2022/02/02 06:07:40;;;;;;;16.67;6.27;;;6.70;96.20;;;;;;5097926;28;20457;-43
2022/02/02 06:10:08;;;;;;;12.93;5.73;;;6.70;96.20;;;;;;5097446;28;20188;-41
2022/02/02 06:12:35;;;;;;;13.13;5.23;;;6.70;96.10;;;;;;5096004;28;20460;-42
2022/02/02 06:15:09;;;;;;;19.57;8.30;;;6.70;96.10;;;;;;5101211;28;20422;-42
2022/02/02 06:17:39;;;;;;;33.63;13.73;;;6.70;96.10;;;;;;5104389;28;20847;-42
2022/02/02 06:20:06;;;;;;;29.53;11.97;;;6.70;96.20;;;;;;5098151;28;20419;-42
2022/02/02 06:22:32;;;;;;;19.33;7.50;;;6.80;96.30;;;;;;5096507;28;20431;-42
2022/02/02 06:25:24;;;;;;;12.70;5.10;;;6.80;96.30;;;;;;5116755;28;20813;-41
2022/02/02 06:27:57;;;;;;;11.10;4.10;;;6.80;96.30;;;;;;5116263;28;20464;-42
2022/02/02 06:30:25;;;;;;;16.07;5.23;;;6.80;96.30;;;;;;5097263;28;20506;-42
2022/02/02 06:32:52;;;;;;;15.50;4.40;;;6.80;96.30;;;;;;5114376;28;20426;-42
2022/02/02 06:35:19;;;;;;;7.33;2.93;;;6.80;96.30;;;;;;5116422;28;20430;-42
2022/02/02 06:37:47;;;;;;;8.53;3.80;;;6.80;96.30;;;;;;5115150;28;20429;-42
2022/02/02 06:40:14;;;;;;;10.03;4.10;;;6.90;96.30;;;;;;5115950;28;20417;-42
2022/02/02 06:42:41;;;;;;;9.67;4.77;;;6.90;96.20;;;;;;5116533;28;20906;-42
2022/02/02 06:45:09;;;;;;;10.87;4.23;;;6.80;96.10;;;;;;5115214;28;20896;-41
2022/02/02 06:47:37;;;;;;;14.30;4.20;;;6.90;96.20;;;;;;5109716;28;20457;-41
2022/02/02 06:50:13;;;;;;;10.17;4.90;;;6.90;96.20;;;;;;5114723;28;20434;-42
2022/02/02 06:53:18;;;;;;;8.80;4.20;;;6.90;96.20;;;;;;5097635;28;20402;-42
2022/02/02 06:59:05;;;;;;;17.47;4.47;;;6.90;96.20;;;;;;5095153;28;20419;-43
2022/02/02 07:01:47;;;;;;;12.17;4.93;;;6.90;96.40;;;;;;5096320;28;21006;-42
2022/02/02 07:04:46;;;;;;;7.80;3.47;;;6.90;96.10;;;;;;5094256;28;20504;-42
2022/02/02 07:07:25;;;;;;;11.00;4.20;;;7.00;96.10;;;;;;5096237;28;20446;-41
2022/02/02 07:12:36;;;;;;;8.50;3.57;;;7.00;96.10;;;;;;5094159;28;20446;-42
2022/02/02 07:15:25;;;;;;;12.73;4.63;;;7.00;96.10;;;;;;5094786;28;20398;-41
2022/02/02 07:20:50;;;;;;;10.57;4.00;;;7.10;96.10;;;;;;5096121;28;20426;-41
2022/02/02 07:23:40;;;;;;;7.90;3.50;;;7.10;96.00;;;;;;5094628;28;20410;-41
2022/02/02 07:29:15;;;;;;;7.77;3.80;;;7.10;95.90;;;;;;5096971;28;20488;-42
2022/02/02 07:35:19;;;;;;;6.10;3.53;;;7.20;95.80;;;;;;5098401;28;20835;-42
2022/02/02 07:37:50;;;;;;;5.77;3.60;;;7.20;95.80;;;;;;5096544;28;20533;-43
2022/02/02 07:40:17;;;;;;;13.90;4.33;;;7.20;95.70;;;;;;5097608;28;20809;-42
2022/02/02 07:42:51;;;;;;;12.30;4.67;;;7.30;95.70;;;;;;5079021;28;20445;-42
2022/02/02 07:45:21;;;;;;;7.70;3.80;;;7.30;95.70;;;;;;5095902;28;20413;-43
2022/02/02 07:48:01;;;;;;;8.20;4.27;;;7.40;95.60;;;;;;5094341;28;20470;-43
2022/02/02 07:50:32;;;;;;;13.60;5.03;;;7.50;95.40;;;;;;5094443;28;20757;-45
2022/02/02 07:53:03;;;;;;;4.83;1.53;;;7.50;95.20;;;;;;5097985;28;20482;-43
2022/02/02 07:55:30;;;;;;;5.30;1.70;;;9.00;99.90;;;;;;5107203;28;20414;-43
2022/02/02 07:57:58;;;;;;;5.03;1.90;;;10.80;99.90;;;;;;5097642;28;20547;-42
2022/02/02 08:00:24;;;;;;;9.93;2.67;;;12.10;97.20;;;;;;5115696;28;20436;-43
2022/02/02 08:05:24;;;;;;;11.00;3.47;;;13.70;92.10;;;;;;5116301;28;20415;-42
2022/02/02 08:10:32;;;;;;;6.73;3.40;;;14.20;83.10;;;;;;5115016;28;20472;-42
2022/02/02 08:13:08;;;;;;;5.97;3.23;;;13.50;79.60;;;;;;5095475;28;20465;-42
2022/02/02 08:15:34;;;;;;;10.23;3.77;;;12.80;78.60;;;;;;5099737;28;20423;-41
2022/02/02 08:18:01;;;;;;;9.10;3.87;;;12.10;79.90;;;;;;5097442;28;20722;-42
2022/02/02 08:20:27;;;;;;;11.23;4.53;;;11.50;80.60;;;;;;5115821;28;20417;-42
2022/02/02 08:22:53;;;;;;;9.07;3.97;;;11.00;81.70;;;;;;5096103;28;20779;-42
2022/02/02 08:25:27;;;;;;;7.17;3.13;;;10.50;83.10;;;;;;5115237;28;20405;-42
2022/02/02 08:27:59;;;;;;;10.07;3.77;;;10.20;84.40;;;;;;5114863;28;20360;-43
2022/02/02 08:30:28;;;;;;;7.43;3.30;;;9.90;87.30;;;;;;5098286;28;20425;-42
2022/02/02 08:33:00;;;;;;;10.17;3.40;;;9.60;88.40;;;;;;5115212;28;20429;-42
2022/02/02 08:35:33;;;;;;;10.40;4.10;;;9.40;89.30;;;;;;5116514;28;20794;-42
2022/02/02 08:41:13;;;;;;;14.73;4.10;;;9.10;90.40;;;;;;5112997;28;20517;-43
2022/02/02 08:43:22;;;;;;;11.37;3.77;;;9.00;90.80;;;;;;5102005;28;20429;-42
2022/02/02 08:45:49;;;;;;;12.33;4.27;;;9.00;91.20;;;;;;5113910;28;20445;-44
2022/02/02 08:48:21;;;;;;;11.77;4.70;;;9.00;91.40;;;;;;5114801;28;20469;-42
2022/02/02 08:51:01;;;;;;;20.80;4.50;;;9.00;91.50;;;;;;5112469;28;20460;-42
2022/02/02 08:53:33;;;;;;;9.53;4.10;;;9.00;91.40;;;;;;5115503;28;20573;-44
2022/02/02 09:01:03;;;;;;;17.43;4.63;;;9.00;91.10;;;;;;5115360;28;20494;-43
2022/02/02 09:06:15;;;;;;;10.30;3.60;;;8.90;91.20;;;;;;5114667;28;20515;-45
2022/02/02 09:08:43;;;;;;;12.27;4.43;;;8.90;91.30;;;;;;5115674;28;20465;-43
2022/02/02 09:24:46;;;;;;;11.97;4.60;;;9.00;91.20;;;;;;5100541;28;20815;-44
2022/02/02 09:32:40;;;;;;;8.90;3.87;;;8.80;90.70;;;;;;5116870;28;20547;-42
2022/02/02 09:35:07;;;;;;;13.13;4.30;;;8.80;90.70;;;;;;5115833;28;20457;-43
2022/02/02 09:37:33;;;;;;;15.93;6.37;;;8.80;90.80;;;;;;5116960;28;20421;-44
2022/02/02 09:40:11;;;;;;;19.50;7.47;;;8.90;90.90;;;;;;5099349;28;20882;-42
2022/02/02 09:42:37;;;;;;;17.00;7.43;;;8.90;90.90;;;;;;5118459;28;20179;-43
2022/02/02 09:45:09;;;;;;;16.20;8.17;;;9.00;90.90;;;;;;5116850;28;20491;-42
2022/02/02 09:47:47;;;;;;;17.00;7.07;;;9.00;90.90;;;;;;5101732;28;20463;-45
2022/02/02 09:50:30;;;;;;;16.80;7.30;;;9.10;90.70;;;;;;5101008;28;20720;-45
2022/02/02 09:52:59;;;;;;;15.37;6.07;;;9.20;90.60;;;;;;5117827;28;20478;-49
2022/02/02 09:55:50;;;;;;;10.80;5.27;;;9.40;90.40;;;;;;5118264;28;20448;-43
2022/02/02 09:58:44;;;;;;;10.87;5.30;;;9.50;90.00;;;;;;5119501;28;20485;-43
2022/02/02 10:04:16;;;;;;;11.70;5.23;;;9.70;89.20;;;;;;5116568;28;20817;-45
2022/02/02 10:06:53;;;;;;;13.10;4.83;;;9.80;88.40;;;;;;5117347;28;20429;-44
2022/02/02 10:12:49;;;;;;;9.00;4.23;;;9.80;87.40;;;;;;5118048;28;20530;-42
2022/02/02 10:15:20;;;;;;;8.00;4.20;;;9.80;87.20;;;;;;5118071;28;20493;-42
2022/02/02 10:17:46;;;;;;;9.23;4.20;;;9.80;87.40;;;;;;5116759;28;20597;-44
2022/02/02 10:20:24;;;;;;;9.53;4.87;;;9.80;87.30;;;;;;5118047;28;20411;-43
2022/02/02 10:22:51;;;;;;;10.03;4.80;;;9.90;87.50;;;;;;5119330;28;20678;-43
2022/02/02 10:25:26;;;;;;;10.50;4.20;;;10.00;86.00;;;;;;5117433;28;20756;-44
2022/02/02 10:27:51;;;;;;;12.80;5.23;;;10.20;85.70;;;;;;5117388;28;20459;-45
2022/02/02 10:30:20;;;;;;;11.20;4.77;;;10.40;85.30;;;;;;5116925;28;20501;-44
2022/02/02 10:32:51;;;;;;;12.20;5.50;;;10.60;84.40;;;;;;5117539;28;20549;-43
2022/02/02 10:35:28;;;;;;;13.70;4.93;;;10.70;83.40;;;;;;5099250;28;20510;-43
2022/02/02 10:38:05;;;;;;;13.10;4.77;;;10.80;82.50;;;;;;5117091;28;20443;-43
2022/02/02 10:40:42;;;;;;;12.87;5.03;;;10.90;82.30;;;;;;5116977;28;20727;-43
2022/02/02 10:43:21;;;;;;;16.37;4.40;;;11.10;82.00;;;;;;5115034;28;20428;-45
2022/02/02 10:45:47;;;;;;;12.27;4.40;;;11.50;81.90;;;;;;5116244;28;20409;-45
2022/02/02 10:48:39;;;;;;;11.83;5.40;;;12.00;80.40;;;;;;5113044;28;20943;-44
2022/02/02 10:51:13;;;;;;;14.50;5.40;;;12.80;78.50;;;;;;5115251;28;20891;-43
2022/02/02 10:56:31;;;;;;;10.50;3.83;;;14.60;72.70;;;;;;5116889;28;20483;-46
2022/02/02 11:06:36;;;;;;;10.93;3.67;;;15.80;66.80;;;;;;5119198;28;20438;-45
2022/02/02 11:07:01;;;;;;;10.77;4.27;;;16.80;62.10;;;;;;5117290;28;20856;-43
2022/02/02 11:09:29;;;;;;;9.97;4.57;;;17.40;59.60;;;;;;5099782;28;20448;-45
2022/02/02 11:11:56;;;;;;;9.60;4.53;;;18.40;58.30;;;;;;5118897;28;20461;-44
2022/02/02 11:14:44;;;;;;;8.10;2.90;;;19.30;56.00;;;;;;5097481;28;20510;-42
2022/02/02 11:17:23;;;;;;;6.40;2.30;;;20.30;57.90;;;;;;5115967;28;20434;-42
2022/02/02 11:19:50;;;;;;;6.60;3.30;;;21.20;55.50;;;;;;5098806;28;20436;-43
2022/02/02 11:22:30;;;;;;;10.47;3.60;;;21.50;54.60;;;;;;5099048;28;20824;-42
2022/02/02 11:24:57;;;;;;;9.00;4.30;;;21.30;51.30;;;;;;5113218;28;20425;-42
2022/02/02 11:27:42;;;;;;;13.37;4.90;;;21.30;49.30;;;;;;5113704;28;20461;-44
2022/02/02 11:30:10;;;;;;;7.43;3.53;;;21.60;47.70;;;;;;5092729;28;20490;-44
2022/02/02 11:32:45;;;;;;;11.17;4.23;;;21.90;46.90;;;;;;5094642;28;20971;-43
2022/02/02 11:35:29;;;;;;;12.03;4.37;;;21.70;46.20;;;;;;5115486;28;20532;-43
2022/02/02 11:38:17;;;;;;;9.73;4.07;;;22.20;45.40;;;;;;5113326;28;20555;-41
2022/02/02 11:41:05;;;;;;;7.57;3.13;;;23.00;45.00;;;;;;5114101;28;20436;-44
2022/02/02 11:44:32;;;;;;;10.87;4.23;;;22.80;43.10;;;;;;5115451;28;20433;-43
2022/02/02 11:47:07;;;;;;;8.60;4.30;;;21.90;43.10;;;;;;5105941;28;20428;-44
2022/02/02 11:49:55;;;;;;;7.73;3.30;;;21.50;42.60;;;;;;5114859;28;20423;-45
2022/02/02 11:52:42;;;;;;;10.37;4.03;;;20.70;43.50;;;;;;5113663;28;20424;-44
2022/02/02 11:55:31;;;;;;;10.97;4.30;;;20.10;44.30;;;;;;5116898;28;20890;-43
2022/02/02 11:58:07;;;;;;;7.83;3.40;;;19.40;44.60;;;;;;5099304;28;20442;-44
2022/02/02 12:00:50;;;;;;;9.10;4.00;;;18.70;45.60;;;;;;5098526;28;20401;-46
2022/02/02 12:03:40;;;;;;;11.43;5.07;;;18.70;47.10;;;;;;5098685;28;20457;-42
2022/02/02 12:11:43;;;;;;;11.63;4.13;;;21.80;44.80;;;;;;5115279;28;20471;-43
2022/02/02 12:49:21;;;;;;;8.70;3.60;;;17.80;44.60;;;;;;5117874;28;20471;-43
2022/02/02 12:55:46;;;;;;;7.20;3.37;;;16.70;46.50;;;;;;5117855;28;20765;-44
2022/02/02 12:57:46;;;;;;;8.13;3.10;;;16.20;46.90;;;;;;5113842;28;20876;-44
2022/02/02 13:03:01;;;;;;;7.70;3.30;;;15.70;48.40;;;;;;5103530;28;20411;-43
2022/02/02 13:05:27;;;;;;;8.30;4.37;;;15.40;48.80;;;;;;5099373;28;20812;-42
2022/02/02 13:07:54;;;;;;;8.00;3.10;;;15.20;49.20;;;;;;5119127;28;20525;-44
2022/02/02 13:10:26;;;;;;;7.60;3.20;;;15.10;49.60;;;;;;5097915;28;20882;-44
2022/02/02 13:13:08;;;;;;;8.53;3.40;;;15.20;50.10;;;;;;5118364;28;20431;-54
2022/02/02 13:15:40;;;;;;;9.33;3.27;;;15.20;50.60;;;;;;5118142;28;20454;-47
2022/02/02 13:20:57;;;;;;;8.70;2.90;;;17.00;50.30;;;;;;5116941;28;20526;-44
2022/02/02 13:26:08;;;;;;;6.67;3.50;;;18.00;47.90;;;;;;5116305;28;20521;-44
2022/02/02 13:28:46;;;;;;;8.40;3.30;;;18.00;47.40;;;;;;5119186;28;20870;-43
2022/02/02 13:34:56;;;;;;;7.07;2.87;;;16.80;46.70;;;;;;5118671;28;20415;-44
2022/02/02 14:33:27;;;;;;;6.80;3.23;;;12.50;57.80;;;;;;5117541;28;20428;-43
2022/02/02 14:35:57;;;;;;;6.87;3.27;;;12.30;58.10;;;;;;5118068;28;20416;-43
2022/02/02 14:38:23;;;;;;;6.00;3.50;;;12.10;58.60;;;;;;5097754;28;20216;-42
2022/02/02 14:43:34;;;;;;;7.60;3.30;;;11.90;59.50;;;;;;5117464;28;20183;-45
2022/02/02 14:46:02;;;;;;;8.70;4.57;;;11.80;60.00;;;;;;5118541;28;20426;-42
2022/02/02 14:48:33;;;;;;;13.67;9.90;;;11.70;60.50;;;;;;5116167;28;20538;-42
2022/02/02 14:51:03;;;;;;;11.47;5.60;;;11.70;61.20;;;;;;5115996;28;20416;-42
2022/02/02 14:53:38;;;;;;;8.03;4.13;;;11.70;61.90;;;;;;5095424;28;20447;-44
2022/02/02 14:56:33;;;;;;;11.00;4.53;;;11.70;62.40;;;;;;5099339;28;20430;-43
2022/02/02 15:28:33;;;;;;;3.10;1.90;;;11.50;69.10;;;;;;5072394;28;20480;-42
2022/02/02 15:31:02;;;;;;;6.40;2.07;;;11.50;69.60;;;;;;5114376;28;20514;-42
2022/02/02 15:33:32;;;;;;;4.30;2.20;;;11.60;70.00;;;;;;5115339;28;20405;-41
2022/02/02 15:37:05;;;;;;;3.80;2.17;;;11.60;70.30;;;;;;5088707;28;20420;-43
2022/02/02 15:38:52;;;;;;;4.73;2.00;;;11.60;70.60;;;;;;5087002;28;20449;-42
2022/02/02 15:41:28;;;;;;;5.10;2.07;;;11.60;70.90;;;;;;5079059;28;20437;-44
2022/02/02 15:45:01;;;;;;;2.80;1.87;;;11.50;71.10;;;;;;5097655;28;20432;-42
2022/02/02 16:03:02;;;;;;;5.00;3.70;;;10.60;76.80;;;;;;5095941;28;20444;-42
2022/02/02 16:06:28;;;;;;;4.80;4.27;;;10.50;77.50;;;;;;5095445;28;20434;-42
2022/02/02 16:08:25;;;;;;;4.27;3.47;;;10.40;78.50;;;;;;5082489;28;20466;-44
2022/02/02 16:13:31;;;;;;;5.53;3.50;;;10.20;80.00;;;;;;5098673;28;20406;-42
2022/02/02 16:16:03;;;;;;;6.10;3.63;;;10.10;80.60;;;;;;5117325;28;20649;-44
2022/02/02 16:37:23;;;;;;;3.60;2.07;;;9.60;87.50;;;;;;5112395;28;20482;-46
2022/02/02 16:39:57;;;;;;;4.00;2.30;;;9.60;88.20;;;;;;5111457;28;20429;-43
2022/02/02 16:45:08;;;;;;;3.83;3.07;;;9.50;89.30;;;;;;5112954;28;20410;-47
2022/02/02 16:47:33;;;;;;;4.73;1.23;;;9.50;90.00;;;;;;5094481;28;20480;-46
2022/02/02 16:49:59;;;;;;;3.50;1.70;;;11.20;99.80;;;;;;5113309;28;21017;-44
2022/02/02 16:52:29;;;;;;;5.60;2.17;;;12.20;98.00;;;;;;5110013;28;20248;-44
2022/02/02 16:55:01;;;;;;;2.90;1.67;;;12.90;95.90;;;;;;5098620;28;20176;-43
2022/02/02 17:33:01;;;;;;;5.03;2.70;;;12.40;87.30;;;;;;5118941;28;20431;-46
2022/02/02 17:38:44;;;;;;;3.13;2.40;;;11.60;85.80;;;;;;5085410;28;20409;-46
2022/02/02 18:20:59;;;;;;;5.90;5.30;;;9.10;93.30;;;;;;5119500;28;20480;-46
2022/02/02 18:23:33;;;;;;;5.20;4.00;;;9.10;93.30;;;;;;5118501;28;20412;-46
2022/02/02 18:33:56;;;;;;;4.80;3.93;;;8.90;93.60;;;;;;5118652;28;20698;-46
2022/02/02 18:40:08;;;;;;;4.60;4.00;;;8.80;93.80;;;;;;5116762;28;20409;-46
2022/02/02 18:55:14;;;;;;;8.47;6.83;;;8.40;94.50;;;;;;5118727;28;20413;-46
2022/02/02 19:00:15;;;;;;;7.80;6.00;;;8.40;94.70;;;;;;5116851;28;20431;-46
2022/02/02 19:40:37;;;;;;;5.27;4.77;;;10.40;92.50;;;;;;5113986;28;20778;-47
2022/02/02 20:10:14;;;;;;;5.40;4.90;;;8.90;95.10;;;;;;5115242;28;20448;-47
2022/02/02 20:12:41;;;;;;;6.20;5.70;;;8.80;95.20;;;;;;5116926;28;20542;-47
2022/02/02 20:15:13;;;;;;;6.37;5.77;;;8.80;95.40;;;;;;5116134;28;20425;-47
2022/02/02 20:17:39;;;;;;;6.77;6.17;;;8.80;95.40;;;;;;5116391;28;20410;-48
2022/02/02 20:20:15;;;;;;;6.70;6.10;;;8.80;95.50;;;;;;5098245;28;20534;-47
2022/02/02 20:22:42;;;;;;;5.80;5.30;;;8.70;95.50;;;;;;5115457;28;20740;-48
2022/02/02 20:25:09;;;;;;;5.90;5.40;;;8.70;95.60;;;;;;5116993;28;20431;-47
2022/02/02 20:27:37;;;;;;;6.27;5.67;;;8.70;95.70;;;;;;5116335;28;20439;-47
2022/02/02 20:30:06;;;;;;;6.07;5.47;;;8.70;95.70;;;;;;5097938;28;20829;-47
2022/02/02 20:32:32;;;;;;;5.77;5.17;;;8.70;95.80;;;;;;5117109;28;20422;-47
2022/02/02 20:34:58;;;;;;;7.00;5.70;;;8.60;95.70;;;;;;5114769;28;20420;-47
2022/02/02 20:37:24;;;;;;;6.00;5.40;;;8.60;95.80;;;;;;5098681;28;20418;-47
2022/02/02 20:40:03;;;;;;;6.27;4.60;;;8.60;95.80;;;;;;5115432;28;20455;-46
2022/02/02 20:42:53;;;;;;;6.27;5.77;;;8.60;95.80;;;;;;5114996;28;20865;-47
2022/02/02 21:03:09;;;;;;;6.47;5.87;;;8.60;96.00;;;;;;5096424;28;20482;-47
2022/02/02 21:14:50;;;;;;;6.80;6.10;;;8.60;96.30;;;;;;5118834;28;20424;-47
2022/02/02 21:17:26;;;;;;;10.23;7.60;;;8.60;96.40;;;;;;5120595;28;20406;-47
2022/02/02 21:20:20;;;;;;;6.93;6.30;;;8.60;96.50;;;;;;5119494;28;20565;-47
2022/02/02 21:22:48;;;;;;;7.30;5.97;;;8.50;96.50;;;;;;5103442;28;20448;-47
2022/02/02 21:25:39;;;;;;;7.43;5.97;;;8.60;96.60;;;;;;5118468;28;20559;-47
2022/02/02 21:28:07;;;;;;;7.50;6.67;;;8.60;96.70;;;;;;5118330;28;20490;-47
2022/02/02 21:30:35;;;;;;;7.80;7.03;;;8.60;96.70;;;;;;5118937;28;20422;-46
2022/02/02 21:33:01;;;;;;;8.27;7.07;;;8.60;97.10;;;;;;5117055;28;20557;-47
2022/02/02 21:35:28;;;;;;;6.90;6.30;;;8.60;96.80;;;;;;5118299;28;20926;-47
2022/02/02 21:38:04;;;;;;;7.13;6.27;;;8.50;96.80;;;;;;5080029;28;20473;-46
2022/02/02 21:40:31;;;;;;;7.63;6.00;;;8.50;96.90;;;;;;5098672;28;20489;-47
2022/02/02 21:42:58;;;;;;;7.70;6.07;;;8.50;97.00;;;;;;5097501;28;20885;-54
2022/02/02 21:45:26;;;;;;;7.20;6.50;;;8.50;97.00;;;;;;5113220;28;20425;-47
2022/02/02 21:47:52;;;;;;;6.90;6.20;;;8.50;97.10;;;;;;5117078;28;20475;-46
2022/02/02 21:50:42;;;;;;;6.23;5.63;;;8.50;97.10;;;;;;5102440;28;20849;-47
2022/02/02 21:53:08;;;;;;;5.73;5.23;;;8.50;97.10;;;;;;5081343;28;20433;-47
2022/02/02 21:55:35;;;;;;;5.73;5.13;;;8.60;97.10;;;;;;5092975;28;20861;-46
2022/02/02 21:58:01;;;;;;;5.60;5.10;;;8.50;97.10;;;;;;5102298;28;20536;-47
2022/02/02 22:00:27;;;;;;;5.63;5.13;;;8.50;97.10;;;;;;5120614;28;20559;-46
2022/02/02 22:02:54;;;;;;;5.93;5.43;;;8.50;97.10;;;;;;5119436;28;20263;-47
2022/02/02 22:05:20;;;;;;;5.40;4.67;;;8.50;97.10;;;;;;5100878;28;20427;-47
2022/02/02 22:07:45;;;;;;;5.63;5.10;;;8.50;97.10;;;;;;5099156;28;20568;-47
2022/02/02 22:10:12;;;;;;;5.13;4.70;;;8.50;97.10;;;;;;5109751;28;20187;-47
2022/02/02 22:12:39;;;;;;;4.83;4.40;;;8.50;97.10;;;;;;5112590;28;20503;-47
2022/02/02 22:15:22;;;;;;;5.50;5.00;;;8.50;97.20;;;;;;5122752;27;20859;-47
2022/02/02 22:17:48;;;;;;;4.83;4.40;;;8.50;97.10;;;;;;5097363;28;20440;-47
2022/02/02 22:20:16;;;;;;;5.70;5.13;;;8.50;97.20;;;;;;5100220;28;20421;-47
2022/02/02 22:22:43;;;;;;;4.87;4.47;;;8.50;97.20;;;;;;5081025;28;20175;-47
2022/02/02 22:25:09;;;;;;;4.53;4.13;;;8.50;97.20;;;;;;5101100;28;20422;-45
2022/02/02 22:27:35;;;;;;;6.63;5.17;;;8.50;97.20;;;;;;5098436;28;20411;-46
2022/02/02 22:30:04;;;;;;;4.97;4.57;;;8.50;97.20;;;;;;5099204;28;20434;-47
2022/02/02 22:32:33;;;;;;;5.00;4.50;;;8.50;97.20;;;;;;5084696;28;20442;-46
2022/02/02 22:34:59;;;;;;;4.70;4.20;;;8.50;97.20;;;;;;5103796;28;20417;-46
2022/02/02 22:37:26;;;;;;;5.20;4.70;;;8.60;97.30;;;;;;5116445;28;20451;-46
2022/02/02 22:39:52;;;;;;;5.47;4.97;;;8.60;97.40;;;;;;5117099;28;20743;-46
2022/02/02 22:42:21;;;;;;;5.33;4.93;;;8.60;97.40;;;;;;5110953;28;20429;-46
2022/02/02 22:44:48;;;;;;;5.80;5.30;;;8.50;97.50;;;;;;5102776;28;20506;-46
2022/02/02 22:47:16;;;;;;;6.17;5.60;;;8.60;97.60;;;;;;5099588;28;20439;-46
2022/02/02 22:49:45;;;;;;;5.47;4.97;;;8.60;97.70;;;;;;5104797;28;20489;-46
2022/02/02 22:52:11;;;;;;;5.80;5.30;;;8.50;97.70;;;;;;5108965;28;20902;-46
2022/02/02 22:54:40;;;;;;;5.70;5.17;;;8.50;97.80;;;;;;5112658;28;20436;-46
2022/02/02 22:57:07;;;;;;;5.60;5.13;;;8.60;97.90;;;;;;5117994;28;20473;-46
2022/02/02 22:59:34;;;;;;;6.43;5.93;;;8.50;97.90;;;;;;5114729;28;20430;-47
2022/02/02 23:02:13;;;;;;;6.77;6.10;;;8.60;98.00;;;;;;5106194;28;20441;-46
2022/02/02 23:04:38;;;;;;;6.53;5.90;;;8.50;98.00;;;;;;5101343;28;20843;-46
2022/02/02 23:07:04;;;;;;;5.63;5.10;;;8.50;98.10;;;;;;5112898;28;20525;-46
2022/02/02 23:09:33;;;;;;;6.20;5.60;;;8.50;98.10;;;;;;5100384;28;20225;-46
2022/02/02 23:11:59;;;;;;;6.60;6.00;;;8.50;98.10;;;;;;5118076;28;20573;-46
2022/02/02 23:14:31;;;;;;;6.60;6.00;;;8.50;98.10;;;;;;5109450;28;20532;-46
2022/02/02 23:16:57;;;;;;;6.63;6.00;;;8.50;98.20;;;;;;5101890;28;20426;-46
2022/02/02 23:19:23;;;;;;;5.87;5.33;;;8.50;98.20;;;;;;5099603;28;20444;-46
2022/02/02 23:21:49;;;;;;;5.73;5.23;;;8.60;98.30;;;;;;5108102;28;20447;-46
2022/02/02 23:24:16;;;;;;;6.73;6.07;;;8.50;98.20;;;;;;5116013;28;20282;-45
2022/02/02 23:26:45;;;;;;;7.30;6.07;;;8.60;98.20;;;;;;5118438;28;20446;-46
2022/02/02 23:29:12;;;;;;;7.43;6.83;;;8.50;98.10;;;;;;5099232;28;20474;-46
2022/02/02 23:31:38;;;;;;;6.90;6.30;;;8.50;98.20;;;;;;5097391;28;20428;-46
2022/02/02 23:34:04;;;;;;;7.00;6.40;;;8.50;98.20;;;;;;5108888;28;20549;-47
2022/02/02 23:36:30;;;;;;;6.67;6.13;;;8.50;98.20;;;;;;5086836;28;20186;-46
2022/02/02 23:38:56;;;;;;;6.07;5.57;;;8.50;98.20;;;;;;5098020;28;20506;-46
2022/02/02 23:43:50;;;;;;;6.30;5.80;;;8.50;98.20;;;;;;5103553;28;20422;-46
2022/02/02 23:46:19;;;;;;;3.00;2.70;;;8.50;98.30;;;;;;5099005;28;20471;-46
2022/02/02 23:48:53;;;;;;;2.50;2.30;;;9.00;99.90;;;;;;5097644;28;20313;-46
2022/02/02 23:51:24;;;;;;;3.00;2.80;;;9.60;99.90;;;;;;5112514;28;20850;-46
2022/02/02 23:53:51;;;;;;;2.83;2.53;;;10.30;99.90;;;;;;5120362;28;20399;-46
2022/02/02 23:58:51;;;;;;;4.60;4.20;;;11.50;99.90;;;;;;5103619;28;20447;-46
